sensor_id;sensor_type;location;lat;lon;timestamp;temperature;humidity
36670;DHT22;22662;47.412;9.742;2022-07-23T00:02:09;22.30;99.90
36670;DHT22;22662;47.412;9.742;2022-07-23T00:04:35;22.20;99.90
36670;DHT22;22662;47.412;9.742;2022-07-23T00:07:00;22.30;99.90
36670;DHT22;22662;47.412;9.742;2022-07-23T00:09:26;22.20;99.90
36670;DHT22;22662;47.412;9.742;2022-07-23T00:11:54;22.20;99.90
36670;DHT22;22662;47.412;9.742;2022-07-23T00:14:19;22.10;99.90
36670;DHT22;22662;47.412;9.742;2022-07-23T00:16:45;22.10;99.90
36670;DHT22;22662;47.412;9.742;2022-07-23T00:19:14;22.20;99.90
36670;DHT22;22662;47.412;9.742;2022-07-23T00:21:40;22.20;99.90
36670;DHT22;22662;47.412;9.742;2022-07-23T00:24:06;22.20;99.90
36670;DHT22;22662;47.412;9.742;2022-07-23T00:26:31;22.20;99.90
36670;DHT22;22662;47.412;9.742;2022-07-23T00:28:57;22.20;99.90
36670;DHT22;22662;47.412;9.742;2022-07-23T00:31:23;22.20;99.90
36670;DHT22;22662;47.412;9.742;2022-07-23T00:33:49;22.20;99.90
36670;DHT22;22662;47.412;9.742;2022-07-23T00:36:14;22.10;99.90
36670;DHT22;22662;47.412;9.742;2022-07-23T00:38:40;22.20;99.90
36670;DHT22;22662;47.412;9.742;2022-07-23T00:41:06;22.10;99.90
36670;DHT22;22662;47.412;9.742;2022-07-23T00:43:32;22.10;99.90
36670;DHT22;22662;47.412;9.742;2022-07-23T00:45:58;22.10;99.90
36670;DHT22;22662;47.412;9.742;2022-07-23T00:48:23;22.10;99.90
36670;DHT22;22662;47.412;9.742;2022-07-23T00:50:49;22.10;99.90
36670;DHT22;22662;47.412;9.742;2022-07-23T00:53:15;21.90;99.90
36670;DHT22;22662;47.412;9.742;2022-07-23T00:55:41;21.70;99.90
36670;DHT22;22662;47.412;9.742;2022-07-23T00:58:08;21.40;99.90
36670;DHT22;22662;47.412;9.742;2022-07-23T01:00:35;21.20;99.90
36670;DHT22;22662;47.412;9.742;2022-07-23T01:03:00;21.10;99.90
36670;DHT22;22662;47.412;9.742;2022-07-23T01:05:26;21.10;99.90
36670;DHT22;22662;47.412;9.742;2022-07-23T01:07:52;21.00;99.90
36670;DHT22;22662;47.412;9.742;2022-07-23T01:10:18;20.90;99.90
36670;DHT22;22662;47.412;9.742;2022-07-23T01:12:56;20.90;99.90
36670;DHT22;22662;47.412;9.742;2022-07-23T01:15:22;21.00;99.90
36670;DHT22;22662;47.412;9.742;2022-07-23T01:17:48;21.00;99.90
36670;DHT22;22662;47.412;9.742;2022-07-23T01:20:14;21.10;99.90
36670;DHT22;22662;47.412;9.742;2022-07-23T01:22:40;21.20;99.90
36670;DHT22;22662;47.412;9.742;2022-07-23T01:25:07;21.30;99.90
36670;DHT22;22662;47.412;9.742;2022-07-23T01:27:32;21.40;99.90
36670;DHT22;22662;47.412;9.742;2022-07-23T01:30:00;21.50;99.90
36670;DHT22;22662;47.412;9.742;2022-07-23T01:32:26;21.50;99.90
36670;DHT22;22662;47.412;9.742;2022-07-23T01:34:52;21.40;99.90
36670;DHT22;22662;47.412;9.742;2022-07-23T01:37:18;21.30;99.90
36670;DHT22;22662;47.412;9.742;2022-07-23T01:39:43;21.30;99.90
36670;DHT22;22662;47.412;9.742;2022-07-23T01:42:09;20.90;99.90
36670;DHT22;22662;47.412;9.742;2022-07-23T01:44:35;20.60;99.90
36670;DHT22;22662;47.412;9.742;2022-07-23T01:47:01;20.50;99.90
36670;DHT22;22662;47.412;9.742;2022-07-23T01:49:27;20.40;99.90
36670;DHT22;22662;47.412;9.742;2022-07-23T01:51:52;20.30;99.90
36670;DHT22;22662;47.412;9.742;2022-07-23T01:54:31;20.30;99.90
36670;DHT22;22662;47.412;9.742;2022-07-23T01:56:58;20.30;99.90
36670;DHT22;22662;47.412;9.742;2022-07-23T01:59:26;20.30;99.90
36670;DHT22;22662;47.412;9.742;2022-07-23T02:01:52;20.40;99.90
36670;DHT22;22662;47.412;9.742;2022-07-23T02:04:19;20.50;99.90
36670;DHT22;22662;47.412;9.742;2022-07-23T02:06:45;20.50;99.90
36670;DHT22;22662;47.412;9.742;2022-07-23T02:09:10;20.60;99.90
36670;DHT22;22662;47.412;9.742;2022-07-23T02:11:36;20.50;99.90
36670;DHT22;22662;47.412;9.742;2022-07-23T02:14:02;20.60;99.90
36670;DHT22;22662;47.412;9.742;2022-07-23T02:16:28;20.50;99.90
36670;DHT22;22662;47.412;9.742;2022-07-23T02:18:55;20.60;99.90
36670;DHT22;22662;47.412;9.742;2022-07-23T02:21:20;20.70;99.90
36670;DHT22;22662;47.412;9.742;2022-07-23T02:23:47;20.70;99.90
36670;DHT22;22662;47.412;9.742;2022-07-23T02:26:12;20.60;99.90
36670;DHT22;22662;47.412;9.742;2022-07-23T02:28:38;20.70;99.90
36670;DHT22;22662;47.412;9.742;2022-07-23T02:31:04;20.70;99.90
36670;DHT22;22662;47.412;9.742;2022-07-23T02:33:30;20.70;99.90
36670;DHT22;22662;47.412;9.742;2022-07-23T02:35:56;20.50;99.90
36670;DHT22;22662;47.412;9.742;2022-07-23T02:38:22;20.40;99.90
36670;DHT22;22662;47.412;9.742;2022-07-23T02:40:48;20.40;99.90
36670;DHT22;22662;47.412;9.742;2022-07-23T02:43:13;20.40;99.90
36670;DHT22;22662;47.412;9.742;2022-07-23T02:45:39;20.40;99.90
36670;DHT22;22662;47.412;9.742;2022-07-23T02:48:05;20.40;99.90
36670;DHT22;22662;47.412;9.742;2022-07-23T02:50:31;20.50;99.90
36670;DHT22;22662;47.412;9.742;2022-07-23T02:52:57;20.60;99.90
36670;DHT22;22662;47.412;9.742;2022-07-23T02:55:22;20.70;99.90
36670;DHT22;22662;47.412;9.742;2022-07-23T02:57:48;20.60;99.90
36670;DHT22;22662;47.412;9.742;2022-07-23T03:00:14;20.40;99.90
36670;DHT22;22662;47.412;9.742;2022-07-23T03:02:40;20.40;99.90
36670;DHT22;22662;47.412;9.742;2022-07-23T03:05:06;20.40;99.90
36670;DHT22;22662;47.412;9.742;2022-07-23T03:07:32;20.40;99.90
36670;DHT22;22662;47.412;9.742;2022-07-23T03:09:58;20.30;99.90
36670;DHT22;22662;47.412;9.742;2022-07-23T03:12:23;20.30;99.90
36670;DHT22;22662;47.412;9.742;2022-07-23T03:14:49;20.40;99.90
36670;DHT22;22662;47.412;9.742;2022-07-23T03:17:15;20.40;99.90
36670;DHT22;22662;47.412;9.742;2022-07-23T03:19:41;20.40;99.90
36670;DHT22;22662;47.412;9.742;2022-07-23T03:22:07;20.30;99.90
36670;DHT22;22662;47.412;9.742;2022-07-23T03:24:33;20.40;99.90
36670;DHT22;22662;47.412;9.742;2022-07-23T03:27:17;20.20;99.90
36670;DHT22;22662;47.412;9.742;2022-07-23T03:29:43;20.00;99.90
36670;DHT22;22662;47.412;9.742;2022-07-23T03:32:09;19.90;99.90
36670;DHT22;22662;47.412;9.742;2022-07-23T03:34:35;19.90;99.90
36670;DHT22;22662;47.412;9.742;2022-07-23T03:37:01;20.20;99.90
36670;DHT22;22662;47.412;9.742;2022-07-23T03:39:27;20.40;99.90
36670;DHT22;22662;47.412;9.742;2022-07-23T03:41:56;20.30;99.90
36670;DHT22;22662;47.412;9.742;2022-07-23T03:44:21;20.40;99.90
36670;DHT22;22662;47.412;9.742;2022-07-23T03:46:47;20.50;99.90
36670;DHT22;22662;47.412;9.742;2022-07-23T03:49:13;20.30;99.90
36670;DHT22;22662;47.412;9.742;2022-07-23T03:51:39;20.00;99.90
36670;DHT22;22662;47.412;9.742;2022-07-23T03:54:05;20.00;99.90
36670;DHT22;22662;47.412;9.742;2022-07-23T03:56:30;20.00;99.90
36670;DHT22;22662;47.412;9.742;2022-07-23T03:58:56;20.10;99.90
36670;DHT22;22662;47.412;9.742;2022-07-23T04:01:22;20.20;99.90
36670;DHT22;22662;47.412;9.742;2022-07-23T04:03:48;20.20;99.90
36670;DHT22;22662;47.412;9.742;2022-07-23T04:06:13;20.20;99.90
36670;DHT22;22662;47.412;9.742;2022-07-23T04:08:39;20.10;99.90
36670;DHT22;22662;47.412;9.742;2022-07-23T04:11:05;20.20;99.90
36670;DHT22;22662;47.412;9.742;2022-07-23T04:13:31;20.20;99.90
36670;DHT22;22662;47.412;9.742;2022-07-23T04:15:58;20.20;99.90
36670;DHT22;22662;47.412;9.742;2022-07-23T04:18:24;20.30;99.90
36670;DHT22;22662;47.412;9.742;2022-07-23T04:20:53;20.30;99.90
36670;DHT22;22662;47.412;9.742;2022-07-23T04:23:19;20.40;99.90
36670;DHT22;22662;47.412;9.742;2022-07-23T04:25:45;20.40;99.90
36670;DHT22;22662;47.412;9.742;2022-07-23T04:28:10;20.50;99.90
36670;DHT22;22662;47.412;9.742;2022-07-23T04:30:36;20.40;99.90
36670;DHT22;22662;47.412;9.742;2022-07-23T04:33:03;20.40;99.90
36670;DHT22;22662;47.412;9.742;2022-07-23T04:35:35;20.40;99.90
36670;DHT22;22662;47.412;9.742;2022-07-23T04:38:02;20.50;99.90
36670;DHT22;22662;47.412;9.742;2022-07-23T04:40:28;20.60;99.90
36670;DHT22;22662;47.412;9.742;2022-07-23T04:42:54;20.70;99.90
36670;DHT22;22662;47.412;9.742;2022-07-23T04:45:20;20.70;99.90
36670;DHT22;22662;47.412;9.742;2022-07-23T04:47:46;20.90;99.90
36670;DHT22;22662;47.412;9.742;2022-07-23T04:50:12;21.10;99.90
36670;DHT22;22662;47.412;9.742;2022-07-23T04:52:38;21.10;99.90
36670;DHT22;22662;47.412;9.742;2022-07-23T04:55:04;21.20;99.90
36670;DHT22;22662;47.412;9.742;2022-07-23T04:57:30;21.50;99.90
36670;DHT22;22662;47.412;9.742;2022-07-23T04:59:56;21.50;99.90
36670;DHT22;22662;47.412;9.742;2022-07-23T05:02:22;21.70;99.90
36670;DHT22;22662;47.412;9.742;2022-07-23T05:04:47;21.70;99.90
36670;DHT22;22662;47.412;9.742;2022-07-23T05:07:13;21.90;99.90
36670;DHT22;22662;47.412;9.742;2022-07-23T05:09:39;21.90;99.90
36670;DHT22;22662;47.412;9.742;2022-07-23T05:12:05;21.80;99.90
36670;DHT22;22662;47.412;9.742;2022-07-23T05:14:31;21.70;99.90
36670;DHT22;22662;47.412;9.742;2022-07-23T05:16:56;21.80;99.90
36670;DHT22;22662;47.412;9.742;2022-07-23T05:19:22;21.70;99.90
36670;DHT22;22662;47.412;9.742;2022-07-23T05:21:48;21.50;99.90
36670;DHT22;22662;47.412;9.742;2022-07-23T05:24:14;21.40;99.90
36670;DHT22;22662;47.412;9.742;2022-07-23T05:26:40;21.20;99.90
36670;DHT22;22662;47.412;9.742;2022-07-23T05:29:05;21.00;99.90
36670;DHT22;22662;47.412;9.742;2022-07-23T05:31:31;21.00;99.90
36670;DHT22;22662;47.412;9.742;2022-07-23T05:33:57;20.80;99.90
36670;DHT22;22662;47.412;9.742;2022-07-23T05:36:23;20.70;99.90
36670;DHT22;22662;47.412;9.742;2022-07-23T05:38:48;20.80;99.90
36670;DHT22;22662;47.412;9.742;2022-07-23T05:41:14;20.90;99.90
36670;DHT22;22662;47.412;9.742;2022-07-23T05:43:40;20.90;99.90
36670;DHT22;22662;47.412;9.742;2022-07-23T05:46:06;21.00;99.90
36670;DHT22;22662;47.412;9.742;2022-07-23T05:48:31;21.00;99.90
36670;DHT22;22662;47.412;9.742;2022-07-23T05:50:57;21.10;99.90
36670;DHT22;22662;47.412;9.742;2022-07-23T05:53:23;21.20;99.90
36670;DHT22;22662;47.412;9.742;2022-07-23T05:55:49;21.30;99.90
36670;DHT22;22662;47.412;9.742;2022-07-23T05:58:15;21.40;99.90
36670;DHT22;22662;47.412;9.742;2022-07-23T06:00:41;21.60;99.90
36670;DHT22;22662;47.412;9.742;2022-07-23T06:03:07;21.70;99.90
36670;DHT22;22662;47.412;9.742;2022-07-23T06:05:32;22.00;99.90
36670;DHT22;22662;47.412;9.742;2022-07-23T06:07:58;22.30;99.90
36670;DHT22;22662;47.412;9.742;2022-07-23T06:10:24;22.60;99.90
36670;DHT22;22662;47.412;9.742;2022-07-23T06:12:50;22.90;99.90
36670;DHT22;22662;47.412;9.742;2022-07-23T06:15:15;23.00;99.90
36670;DHT22;22662;47.412;9.742;2022-07-23T06:17:41;23.10;99.90
36670;DHT22;22662;47.412;9.742;2022-07-23T06:20:09;22.70;99.90
36670;DHT22;22662;47.412;9.742;2022-07-23T06:22:35;22.70;99.90
36670;DHT22;22662;47.412;9.742;2022-07-23T06:25:01;22.50;99.90
36670;DHT22;22662;47.412;9.742;2022-07-23T06:27:27;22.40;99.90
36670;DHT22;22662;47.412;9.742;2022-07-23T06:29:53;22.20;99.90
36670;DHT22;22662;47.412;9.742;2022-07-23T06:32:19;22.00;99.90
36670;DHT22;22662;47.412;9.742;2022-07-23T06:34:45;21.90;99.90
36670;DHT22;22662;47.412;9.742;2022-07-23T06:37:11;21.80;99.90
36670;DHT22;22662;47.412;9.742;2022-07-23T06:39:37;22.00;99.90
36670;DHT22;22662;47.412;9.742;2022-07-23T06:42:03;21.90;99.90
36670;DHT22;22662;47.412;9.742;2022-07-23T06:44:28;22.00;99.90
36670;DHT22;22662;47.412;9.742;2022-07-23T06:46:54;22.20;99.90
36670;DHT22;22662;47.412;9.742;2022-07-23T06:49:20;22.20;99.90
36670;DHT22;22662;47.412;9.742;2022-07-23T06:51:46;22.30;99.90
36670;DHT22;22662;47.412;9.742;2022-07-23T06:54:12;22.50;99.90
36670;DHT22;22662;47.412;9.742;2022-07-23T06:56:37;22.40;99.90
36670;DHT22;22662;47.412;9.742;2022-07-23T06:59:03;22.40;99.90
36670;DHT22;22662;47.412;9.742;2022-07-23T07:01:29;22.30;99.90
36670;DHT22;22662;47.412;9.742;2022-07-23T07:03:55;22.10;99.90
36670;DHT22;22662;47.412;9.742;2022-07-23T07:06:21;21.90;99.90
36670;DHT22;22662;47.412;9.742;2022-07-23T07:08:46;21.90;99.90
36670;DHT22;22662;47.412;9.742;2022-07-23T07:11:12;21.90;99.90
36670;DHT22;22662;47.412;9.742;2022-07-23T07:13:38;21.80;99.90
36670;DHT22;22662;47.412;9.742;2022-07-23T07:16:04;21.90;99.90
36670;DHT22;22662;47.412;9.742;2022-07-23T07:18:30;21.90;99.90
36670;DHT22;22662;47.412;9.742;2022-07-23T07:20:59;22.00;99.90
36670;DHT22;22662;47.412;9.742;2022-07-23T07:23:25;22.20;99.90
36670;DHT22;22662;47.412;9.742;2022-07-23T07:25:51;22.20;99.90
36670;DHT22;22662;47.412;9.742;2022-07-23T07:28:16;22.00;99.90
36670;DHT22;22662;47.412;9.742;2022-07-23T07:30:42;22.10;99.90
36670;DHT22;22662;47.412;9.742;2022-07-23T07:33:08;22.10;99.90
36670;DHT22;22662;47.412;9.742;2022-07-23T07:35:34;22.10;99.90
36670;DHT22;22662;47.412;9.742;2022-07-23T07:38:00;22.20;99.90
36670;DHT22;22662;47.412;9.742;2022-07-23T07:40:26;22.30;99.90
36670;DHT22;22662;47.412;9.742;2022-07-23T07:42:53;22.20;99.90
36670;DHT22;22662;47.412;9.742;2022-07-23T07:45:23;22.20;99.90
36670;DHT22;22662;47.412;9.742;2022-07-23T07:47:50;22.20;99.90
36670;DHT22;22662;47.412;9.742;2022-07-23T07:50:16;22.20;99.90
36670;DHT22;22662;47.412;9.742;2022-07-23T07:52:43;22.10;99.90
36670;DHT22;22662;47.412;9.742;2022-07-23T07:55:09;22.10;99.90
36670;DHT22;22662;47.412;9.742;2022-07-23T07:57:35;22.00;99.90
36670;DHT22;22662;47.412;9.742;2022-07-23T08:00:01;21.90;99.90
36670;DHT22;22662;47.412;9.742;2022-07-23T08:02:27;21.90;99.90
36670;DHT22;22662;47.412;9.742;2022-07-23T08:04:53;21.70;99.90
36670;DHT22;22662;47.412;9.742;2022-07-23T08:07:19;21.60;99.90
36670;DHT22;22662;47.412;9.742;2022-07-23T08:09:45;21.60;99.90
36670;DHT22;22662;47.412;9.742;2022-07-23T08:12:11;21.60;99.90
36670;DHT22;22662;47.412;9.742;2022-07-23T08:14:36;21.60;99.90
36670;DHT22;22662;47.412;9.742;2022-07-23T08:17:02;21.70;99.90
36670;DHT22;22662;47.412;9.742;2022-07-23T08:19:28;21.80;99.90
36670;DHT22;22662;47.412;9.742;2022-07-23T08:21:54;21.90;99.90
36670;DHT22;22662;47.412;9.742;2022-07-23T08:24:19;21.90;99.90
36670;DHT22;22662;47.412;9.742;2022-07-23T08:26:45;21.90;99.90
36670;DHT22;22662;47.412;9.742;2022-07-23T08:29:11;21.80;99.90
36670;DHT22;22662;47.412;9.742;2022-07-23T08:31:37;21.80;99.90
36670;DHT22;22662;47.412;9.742;2022-07-23T08:34:03;21.90;99.90
36670;DHT22;22662;47.412;9.742;2022-07-23T08:36:29;22.10;99.90
36670;DHT22;22662;47.412;9.742;2022-07-23T08:38:58;22.30;99.90
36670;DHT22;22662;47.412;9.742;2022-07-23T08:41:25;22.40;99.90
36670;DHT22;22662;47.412;9.742;2022-07-23T08:43:51;22.50;99.90
36670;DHT22;22662;47.412;9.742;2022-07-23T08:46:19;22.50;99.90
36670;DHT22;22662;47.412;9.742;2022-07-23T08:48:47;22.30;99.90
36670;DHT22;22662;47.412;9.742;2022-07-23T08:51:13;22.60;99.90
36670;DHT22;22662;47.412;9.742;2022-07-23T08:53:40;22.70;99.90
36670;DHT22;22662;47.412;9.742;2022-07-23T08:56:08;22.90;99.90
36670;DHT22;22662;47.412;9.742;2022-07-23T08:58:34;23.20;99.90
36670;DHT22;22662;47.412;9.742;2022-07-23T09:01:01;23.50;99.90
36670;DHT22;22662;47.412;9.742;2022-07-23T09:03:35;23.40;99.90
36670;DHT22;22662;47.412;9.742;2022-07-23T09:06:02;23.40;99.90
36670;DHT22;22662;47.412;9.742;2022-07-23T09:08:41;23.30;99.90
36670;DHT22;22662;47.412;9.742;2022-07-23T09:11:10;23.30;99.90
36670;DHT22;22662;47.412;9.742;2022-07-23T09:13:40;23.20;99.90
36670;DHT22;22662;47.412;9.742;2022-07-23T09:18:45;23.00;99.90
36670;DHT22;22662;47.412;9.742;2022-07-23T09:21:26;23.00;99.90
36670;DHT22;22662;47.412;9.742;2022-07-23T09:26:42;22.90;99.90
36670;DHT22;22662;47.412;9.742;2022-07-23T09:29:22;23.00;99.90
36670;DHT22;22662;47.412;9.742;2022-07-23T09:34:20;23.00;99.90
36670;DHT22;22662;47.412;9.742;2022-07-23T09:36:47;22.80;99.90
36670;DHT22;22662;47.412;9.742;2022-07-23T09:39:15;22.80;99.90
36670;DHT22;22662;47.412;9.742;2022-07-23T09:41:44;22.80;99.90
36670;DHT22;22662;47.412;9.742;2022-07-23T09:44:15;22.90;99.90
36670;DHT22;22662;47.412;9.742;2022-07-23T09:46:43;22.80;99.90
36670;DHT22;22662;47.412;9.742;2022-07-23T09:49:12;23.00;99.90
36670;DHT22;22662;47.412;9.742;2022-07-23T09:51:49;22.80;99.90
36670;DHT22;22662;47.412;9.742;2022-07-23T09:54:33;23.00;99.90
36670;DHT22;22662;47.412;9.742;2022-07-23T09:57:12;23.20;99.90
36670;DHT22;22662;47.412;9.742;2022-07-23T09:59:43;23.20;99.90
36670;DHT22;22662;47.412;9.742;2022-07-23T10:02:12;23.10;99.90
36670;DHT22;22662;47.412;9.742;2022-07-23T10:04:38;23.30;99.90
36670;DHT22;22662;47.412;9.742;2022-07-23T10:07:06;23.30;99.90
36670;DHT22;22662;47.412;9.742;2022-07-23T10:09:37;23.60;99.90
36670;DHT22;22662;47.412;9.742;2022-07-23T10:12:05;23.90;99.90
36670;DHT22;22662;47.412;9.742;2022-07-23T10:14:38;23.70;99.90
36670;DHT22;22662;47.412;9.742;2022-07-23T10:17:06;24.10;99.90
36670;DHT22;22662;47.412;9.742;2022-07-23T10:19:32;24.00;99.90
36670;DHT22;22662;47.412;9.742;2022-07-23T10:22:04;24.30;99.90
36670;DHT22;22662;47.412;9.742;2022-07-23T10:24:44;24.70;99.90
36670;DHT22;22662;47.412;9.742;2022-07-23T10:29:50;24.80;99.90
36670;DHT22;22662;47.412;9.742;2022-07-23T10:32:35;25.00;99.90
36670;DHT22;22662;47.412;9.742;2022-07-23T10:37:55;24.70;99.90
36670;DHT22;22662;47.412;9.742;2022-07-23T10:40:23;24.60;99.90
36670;DHT22;22662;47.412;9.742;2022-07-23T10:42:51;24.50;99.90
36670;DHT22;22662;47.412;9.742;2022-07-23T10:45:35;24.50;99.90
36670;DHT22;22662;47.412;9.742;2022-07-23T10:48:16;24.40;99.90
36670;DHT22;22662;47.412;9.742;2022-07-23T10:50:44;24.50;99.90
36670;DHT22;22662;47.412;9.742;2022-07-23T10:53:12;24.20;99.90
36670;DHT22;22662;47.412;9.742;2022-07-23T10:55:50;23.90;99.90
36670;DHT22;22662;47.412;9.742;2022-07-23T10:58:46;24.00;99.90
36670;DHT22;22662;47.412;9.742;2022-07-23T11:01:51;24.20;99.90
36670;DHT22;22662;47.412;9.742;2022-07-23T11:04:16;24.80;99.90
36670;DHT22;22662;47.412;9.742;2022-07-23T11:09:38;25.30;99.90
36670;DHT22;22662;47.412;9.742;2022-07-23T11:14:58;25.70;99.90
36670;DHT22;22662;47.412;9.742;2022-07-23T11:17:24;26.10;99.90
36670;DHT22;22662;47.412;9.742;2022-07-23T11:25:11;25.50;99.90
36670;DHT22;22662;47.412;9.742;2022-07-23T11:27:46;25.30;99.90
36670;DHT22;22662;47.412;9.742;2022-07-23T11:32:54;24.80;99.90
36670;DHT22;22662;47.412;9.742;2022-07-23T11:35:46;24.90;99.90
36670;DHT22;22662;47.412;9.742;2022-07-23T11:38:21;24.60;99.90
36670;DHT22;22662;47.412;9.742;2022-07-23T11:40:50;24.40;99.90
36670;DHT22;22662;47.412;9.742;2022-07-23T11:43:17;24.10;99.90
36670;DHT22;22662;47.412;9.742;2022-07-23T11:45:45;24.20;99.90
36670;DHT22;22662;47.412;9.742;2022-07-23T11:48:26;24.40;99.90
36670;DHT22;22662;47.412;9.742;2022-07-23T11:50:53;24.40;99.90
36670;DHT22;22662;47.412;9.742;2022-07-23T11:53:30;24.20;99.90
36670;DHT22;22662;47.412;9.742;2022-07-23T11:56:07;24.20;99.90
36670;DHT22;22662;47.412;9.742;2022-07-23T11:58:33;23.90;99.90
36670;DHT22;22662;47.412;9.742;2022-07-23T12:01:00;23.90;99.90
36670;DHT22;22662;47.412;9.742;2022-07-23T12:03:25;23.70;99.90
36670;DHT22;22662;47.412;9.742;2022-07-23T12:05:56;23.90;99.90
36670;DHT22;22662;47.412;9.742;2022-07-23T12:08:22;24.10;99.90
36670;DHT22;22662;47.412;9.742;2022-07-23T12:10:47;24.20;99.90
36670;DHT22;22662;47.412;9.742;2022-07-23T12:13:19;23.80;99.90
36670;DHT22;22662;47.412;9.742;2022-07-23T12:15:48;23.90;99.90
36670;DHT22;22662;47.412;9.742;2022-07-23T12:18:20;24.30;99.90
36670;DHT22;22662;47.412;9.742;2022-07-23T12:20:49;24.80;99.90
36670;DHT22;22662;47.412;9.742;2022-07-23T12:23:17;25.20;99.90
36670;DHT22;22662;47.412;9.742;2022-07-23T12:25:45;25.00;99.90
36670;DHT22;22662;47.412;9.742;2022-07-23T12:28:14;24.70;99.90
36670;DHT22;22662;47.412;9.742;2022-07-23T12:30:44;24.90;99.90
36670;DHT22;22662;47.412;9.742;2022-07-23T12:33:14;24.70;99.90
36670;DHT22;22662;47.412;9.742;2022-07-23T12:35:46;25.20;99.90
36670;DHT22;22662;47.412;9.742;2022-07-23T12:38:14;25.10;99.90
36670;DHT22;22662;47.412;9.742;2022-07-23T12:43:12;24.70;99.90
36670;DHT22;22662;47.412;9.742;2022-07-23T12:45:49;25.00;99.90
36670;DHT22;22662;47.412;9.742;2022-07-23T12:48:21;25.30;99.90
36670;DHT22;22662;47.412;9.742;2022-07-23T12:55:47;24.80;99.90
36670;DHT22;22662;47.412;9.742;2022-07-23T12:58:16;24.80;99.90
36670;DHT22;22662;47.412;9.742;2022-07-23T13:01:09;24.60;99.90
36670;DHT22;22662;47.412;9.742;2022-07-23T13:03:40;24.70;99.90
36670;DHT22;22662;47.412;9.742;2022-07-23T13:06:08;24.80;99.90
36670;DHT22;22662;47.412;9.742;2022-07-23T13:08:36;24.90;99.90
36670;DHT22;22662;47.412;9.742;2022-07-23T13:11:03;24.50;99.90
36670;DHT22;22662;47.412;9.742;2022-07-23T13:13:32;24.60;99.90
36670;DHT22;22662;47.412;9.742;2022-07-23T13:15:59;25.00;99.90
36670;DHT22;22662;47.412;9.742;2022-07-23T13:18:27;25.00;99.90
36670;DHT22;22662;47.412;9.742;2022-07-23T13:20:53;25.00;99.90
36670;DHT22;22662;47.412;9.742;2022-07-23T13:23:20;24.90;99.90
36670;DHT22;22662;47.412;9.742;2022-07-23T13:25:47;24.80;99.90
36670;DHT22;22662;47.412;9.742;2022-07-23T13:28:14;25.00;99.90
36670;DHT22;22662;47.412;9.742;2022-07-23T13:30:41;24.60;99.90
36670;DHT22;22662;47.412;9.742;2022-07-23T13:33:07;24.70;99.90
36670;DHT22;22662;47.412;9.742;2022-07-23T13:35:34;24.50;99.90
36670;DHT22;22662;47.412;9.742;2022-07-23T13:38:02;24.40;99.90
36670;DHT22;22662;47.412;9.742;2022-07-23T13:40:27;24.60;99.90
36670;DHT22;22662;47.412;9.742;2022-07-23T13:42:53;24.80;99.90
36670;DHT22;22662;47.412;9.742;2022-07-23T13:45:19;24.70;99.90
36670;DHT22;22662;47.412;9.742;2022-07-23T13:47:45;24.90;99.90
36670;DHT22;22662;47.412;9.742;2022-07-23T13:50:11;25.00;99.90
36670;DHT22;22662;47.412;9.742;2022-07-23T13:52:37;24.80;99.90
36670;DHT22;22662;47.412;9.742;2022-07-23T13:55:04;24.80;99.90
36670;DHT22;22662;47.412;9.742;2022-07-23T13:57:31;25.00;99.90
36670;DHT22;22662;47.412;9.742;2022-07-23T13:59:57;25.10;99.90
36670;DHT22;22662;47.412;9.742;2022-07-23T14:02:23;25.00;99.90
36670;DHT22;22662;47.412;9.742;2022-07-23T14:04:50;25.10;99.90
36670;DHT22;22662;47.412;9.742;2022-07-23T14:07:16;25.20;99.90
36670;DHT22;22662;47.412;9.742;2022-07-23T14:09:42;25.20;99.90
36670;DHT22;22662;47.412;9.742;2022-07-23T14:12:08;25.40;99.90
36670;DHT22;22662;47.412;9.742;2022-07-23T14:14:35;25.70;99.90
36670;DHT22;22662;47.412;9.742;2022-07-23T14:17:01;25.70;99.90
36670;DHT22;22662;47.412;9.742;2022-07-23T14:19:27;25.40;99.90
36670;DHT22;22662;47.412;9.742;2022-07-23T14:21:53;25.30;99.90
36670;DHT22;22662;47.412;9.742;2022-07-23T14:24:18;25.30;99.90
36670;DHT22;22662;47.412;9.742;2022-07-23T14:26:44;25.40;99.90
36670;DHT22;22662;47.412;9.742;2022-07-23T14:29:12;25.60;99.90
36670;DHT22;22662;47.412;9.742;2022-07-23T14:31:38;25.60;99.90
36670;DHT22;22662;47.412;9.742;2022-07-23T14:34:03;25.80;99.90
36670;DHT22;22662;47.412;9.742;2022-07-23T14:36:29;26.00;99.90
36670;DHT22;22662;47.412;9.742;2022-07-23T14:38:55;25.80;99.90
36670;DHT22;22662;47.412;9.742;2022-07-23T14:41:21;26.00;99.90
36670;DHT22;22662;47.412;9.742;2022-07-23T14:43:47;26.10;99.90
36670;DHT22;22662;47.412;9.742;2022-07-23T14:46:13;25.50;99.90
36670;DHT22;22662;47.412;9.742;2022-07-23T14:48:38;25.60;99.90
36670;DHT22;22662;47.412;9.742;2022-07-23T14:51:04;25.80;99.90
36670;DHT22;22662;47.412;9.742;2022-07-23T14:53:30;25.90;99.90
36670;DHT22;22662;47.412;9.742;2022-07-23T14:55:56;25.80;99.90
36670;DHT22;22662;47.412;9.742;2022-07-23T14:58:25;26.00;99.90
36670;DHT22;22662;47.412;9.742;2022-07-23T15:00:51;25.90;99.90
36670;DHT22;22662;47.412;9.742;2022-07-23T15:03:17;25.90;99.90
36670;DHT22;22662;47.412;9.742;2022-07-23T15:05:43;25.80;99.90
36670;DHT22;22662;47.412;9.742;2022-07-23T15:08:09;26.10;99.90
36670;DHT22;22662;47.412;9.742;2022-07-23T15:10:35;26.10;99.90
36670;DHT22;22662;47.412;9.742;2022-07-23T15:13:01;26.10;99.90
36670;DHT22;22662;47.412;9.742;2022-07-23T15:15:27;26.20;99.90
36670;DHT22;22662;47.412;9.742;2022-07-23T15:17:52;26.00;99.90
36670;DHT22;22662;47.412;9.742;2022-07-23T15:20:18;25.90;99.90
36670;DHT22;22662;47.412;9.742;2022-07-23T15:22:44;25.70;99.90
36670;DHT22;22662;47.412;9.742;2022-07-23T15:25:13;25.70;99.90
36670;DHT22;22662;47.412;9.742;2022-07-23T15:27:39;25.60;99.90
36670;DHT22;22662;47.412;9.742;2022-07-23T15:30:05;25.70;99.90
36670;DHT22;22662;47.412;9.742;2022-07-23T15:32:31;25.80;99.90
36670;DHT22;22662;47.412;9.742;2022-07-23T15:34:57;25.80;99.90
36670;DHT22;22662;47.412;9.742;2022-07-23T15:37:23;25.70;99.90
36670;DHT22;22662;47.412;9.742;2022-07-23T15:39:50;25.90;99.90
36670;DHT22;22662;47.412;9.742;2022-07-23T15:42:16;26.00;99.90
36670;DHT22;22662;47.412;9.742;2022-07-23T15:44:42;25.90;99.90
36670;DHT22;22662;47.412;9.742;2022-07-23T15:47:15;26.20;99.90
36670;DHT22;22662;47.412;9.742;2022-07-23T15:49:41;26.60;99.90
36670;DHT22;22662;47.412;9.742;2022-07-23T15:52:07;26.70;99.90
36670;DHT22;22662;47.412;9.742;2022-07-23T15:54:36;26.70;99.90
36670;DHT22;22662;47.412;9.742;2022-07-23T15:57:03;26.70;99.90
36670;DHT22;22662;47.412;9.742;2022-07-23T15:59:29;26.80;99.90
36670;DHT22;22662;47.412;9.742;2022-07-23T16:01:55;26.80;99.90
36670;DHT22;22662;47.412;9.742;2022-07-23T16:04:21;26.90;99.90
36670;DHT22;22662;47.412;9.742;2022-07-23T16:06:47;26.90;99.90